Time;durP1;ratioP1;P1;durP2;ratioP2;P2;SDS_P1;SDS_P2;PMS_P1;PMS_P2;Temp;Humidity;BMP_temperature;BMP_pressure;BME280_temperature;BME280_humidity;BME280_pressure;Samples;Min_cycle;Max_cycle;Signal;HPM_P1;HPM_P2
2021/12/03 00:00:36;;;;;;;1.90;1.80;;;;;;;19.53;50.51;96530.44;4975235;28;20631;-81
2021/12/03 00:03:03;;;;;;;1.83;1.73;;;;;;;20.10;50.67;96624.28;4974560;28;20258;-81
2021/12/03 00:05:30;;;;;;;1.83;1.73;;;;;;;20.10;50.45;96626.84;4991549;28;20233;-81
2021/12/03 00:07:56;;;;;;;2.00;1.90;;;;;;;19.02;50.46;96439.28;4991758;28;20262;-80
2021/12/03 00:10:25;;;;;;;1.87;1.70;;;;;;;20.11;50.44;96636.19;5007093;28;20297;-81
2021/12/03 00:12:53;;;;;;;2.07;1.87;;;;;;;19.79;50.59;96581.97;4991744;28;20237;-81
2021/12/03 00:15:20;;;;;;;1.80;1.70;;;;;;;19.45;50.59;96528.56;4990730;28;20233;-81
2021/12/03 00:17:46;;;;;;;1.83;1.73;;;;;;;19.25;50.40;96491.59;4990473;28;20219;-81
2021/12/03 00:20:14;;;;;;;2.10;2.00;;;;;;;19.29;50.58;96507.00;4990294;28;20262;-81
2021/12/03 00:22:42;;;;;;;1.70;1.60;;;;;;;20.12;50.56;96648.13;4990589;28;20260;-80
2021/12/03 00:25:09;;;;;;;2.03;1.90;;;;;;;20.09;50.95;96653.16;4990234;28;20241;-81
2021/12/03 00:27:35;;;;;;;1.57;1.47;;;;;;;19.82;50.42;96610.97;4990448;28;20227;-81
2021/12/03 00:30:04;;;;;;;1.87;1.77;;;;;;;19.77;50.77;96604.88;4990346;28;20208;-81
2021/12/03 00:32:30;;;;;;;1.60;1.50;;;;;;;19.31;50.48;96541.00;4974264;28;20203;-81
2021/12/03 00:34:57;;;;;;;1.80;1.70;;;;;;;19.79;50.35;96631.28;4989679;28;20673;-80
2021/12/03 00:37:24;;;;;;;1.87;1.77;;;;;;;20.06;50.63;96681.13;5005736;28;20295;-81
2021/12/03 00:39:50;;;;;;;2.10;1.90;;;;;;;18.94;50.56;96491.69;4973937;28;20249;-81
2021/12/03 00:42:18;;;;;;;1.93;1.83;;;;;;;19.74;50.54;96642.19;5006464;28;20242;-80
2021/12/03 00:44:50;;;;;;;1.80;1.70;;;;;;;19.60;50.61;96625.75;4989293;28;20590;-81
2021/12/03 00:47:17;;;;;;;1.87;1.77;;;;;;;20.07;50.70;96710.94;4990329;28;20241;-81
2021/12/03 00:49:43;;;;;;;1.97;1.80;;;;;;;19.82;50.60;96674.69;4989994;28;20234;-80
2021/12/03 00:52:10;;;;;;;1.90;1.80;;;;;;;19.76;50.97;96673.69;4990312;28;20689;-80
2021/12/03 00:54:36;;;;;;;1.60;1.50;;;;;;;18.64;50.57;96476.59;4990656;28;20242;-81
2021/12/03 00:57:03;;;;;;;2.70;1.67;;;;;;;19.82;50.71;96676.38;4990135;28;20743;-79
2021/12/03 00:59:30;;;;;;;1.90;1.80;;;;;;;19.07;50.65;96558.22;4989974;28;20207;-81
2021/12/03 01:01:57;;;;;;;2.00;1.87;;;;;;;19.26;50.59;96597.72;5006402;28;20302;-80
2021/12/03 01:04:24;;;;;;;1.80;1.70;;;;;;;19.61;50.33;96660.59;4989784;28;20206;-80
2021/12/03 01:06:50;;;;;;;1.70;1.60;;;;;;;19.78;50.61;96695.81;4989809;28;20700;-81
2021/12/03 01:09:17;;;;;;;2.10;1.80;;;;;;;18.90;50.90;96546.78;5006415;28;20260;-81
2021/12/03 01:11:43;;;;;;;1.80;1.70;;;;;;;19.57;50.62;96672.41;4989634;28;20203;-81
2021/12/03 01:14:10;;;;;;;1.83;1.73;;;;;;;19.82;50.52;96712.94;4973883;28;20215;-80
2021/12/03 01:16:37;;;;;;;1.73;1.63;;;;;;;19.41;50.49;96642.28;5006116;28;20226;-81
2021/12/03 01:19:03;;;;;;;1.90;1.80;;;;;;;20.11;50.45;96766.28;4990142;28;20638;-81
2021/12/03 01:21:30;;;;;;;1.80;1.70;;;;;;;20.10;50.69;96773.06;4989867;28;20207;-81
2021/12/03 01:23:56;;;;;;;2.03;1.93;;;;;;;19.02;50.48;96587.81;4989732;28;20203;-80
2021/12/03 01:26:24;;;;;;;1.97;1.80;;;;;;;19.14;50.43;96599.97;5004843;28;20235;-81
2021/12/03 01:28:50;;;;;;;2.10;1.80;;;;;;;19.70;50.96;96705.00;4973740;28;20490;-79
2021/12/03 01:31:17;;;;;;;1.70;1.60;;;;;;;20.05;50.60;96766.16;4991109;28;20235;-80
2021/12/03 01:33:44;;;;;;;2.13;1.97;;;;;;;19.75;50.25;96722.97;4989550;28;20209;-80
2021/12/03 01:36:12;;;;;;;1.90;1.80;;;;;;;19.57;50.56;96692.78;4973583;28;20292;-81
2021/12/03 01:38:38;;;;;;;2.00;1.80;;;;;;;20.06;50.48;96773.84;4989534;28;20227;-81
2021/12/03 01:41:05;;;;;;;1.83;1.73;;;;;;;19.30;50.50;96642.88;4990975;28;20242;-81
2021/12/03 01:43:32;;;;;;;1.83;1.73;;;;;;;19.25;50.45;96640.19;5005600;28;20668;-81
2021/12/03 01:46:00;;;;;;;2.03;1.83;;;;;;;20.07;50.69;96783.19;4989647;28;20238;-81
2021/12/03 01:48:27;;;;;;;1.80;1.70;;;;;;;19.78;50.59;96741.72;4991485;28;20313;-81
2021/12/03 01:50:54;;;;;;;1.90;1.80;;;;;;;20.07;50.53;96788.28;4993327;28;20230;-81
2021/12/03 01:53:24;;;;;;;1.83;1.73;;;;;;;18.69;50.56;96556.44;4993303;28;20290;-81
2021/12/03 01:55:51;;;;;;;1.70;1.60;;;;;;;19.28;50.62;96640.28;4993564;28;20294;-81
2021/12/03 01:58:18;;;;;;;1.80;1.70;;;;;;;19.64;50.48;96714.19;4976921;28;20219;-80
2021/12/03 02:00:51;;;;;;;2.00;1.90;;;;;;;19.12;50.62;96627.94;4989265;28;20203;-80
2021/12/03 02:03:18;;;;;;;1.87;1.77;;;;;;;19.81;50.56;96749.44;4985784;28;20743;-80
2021/12/03 02:05:45;;;;;;;1.70;1.60;;;;;;;19.85;50.57;96756.34;4983970;28;20238;-81
2021/12/03 02:08:12;;;;;;;1.77;1.67;;;;;;;19.86;50.45;96757.19;5004067;28;20742;-80
2021/12/03 02:10:39;;;;;;;1.77;1.67;;;;;;;19.16;50.41;96642.47;4983681;28;20242;-81
2021/12/03 02:13:05;;;;;;;1.90;1.80;;;;;;;19.75;50.55;96749.28;5004373;28;20621;-79
2021/12/03 02:15:32;;;;;;;1.73;1.63;;;;;;;20.08;50.64;96799.38;4983634;28;20207;-81
2021/12/03 02:17:58;;;;;;;1.90;1.70;;;;;;;19.24;50.64;96663.03;4966675;28;20215;-81
2021/12/03 02:20:25;;;;;;;1.67;1.57;;;;;;;19.73;50.52;96745.88;5003744;28;20281;-81
2021/12/03 02:22:52;;;;;;;1.90;1.80;;;;;;;19.30;50.58;96687.03;4995173;28;20238;-81
2021/12/03 02:25:20;;;;;;;1.70;1.60;;;;;;;19.35;50.36;96700.75;4983357;28;20654;-80
2021/12/03 02:27:49;;;;;;;1.67;1.57;;;;;;;19.75;50.41;96771.41;4983766;28;20258;-81
2021/12/03 02:30:15;;;;;;;1.80;1.70;;;;;;;19.89;50.77;96796.38;4979372;28;20235;-79
2021/12/03 02:32:42;;;;;;;2.27;2.10;;;;;;;19.49;50.41;96724.88;4983285;28;20199;-81
2021/12/03 02:35:09;;;;;;;1.93;1.83;;;;;;;19.59;50.54;96754.84;4983168;28;20751;-81
2021/12/03 02:37:35;;;;;;;2.00;1.90;;;;;;;19.83;50.59;96786.03;4982893;28;20242;-81
2021/12/03 02:40:04;;;;;;;2.00;1.80;;;;;;;19.74;50.51;96777.31;4977085;28;20275;-81
2021/12/03 02:42:30;;;;;;;2.00;1.90;;;;;;;19.55;50.24;96747.09;4981156;28;20227;-81
2021/12/03 02:44:57;;;;;;;2.07;1.93;;;;;;;19.73;50.36;96776.47;4985144;28;20206;-80
2021/12/03 02:47:23;;;;;;;2.00;1.90;;;;;;;19.53;50.19;96739.41;5003255;28;20244;-81
2021/12/03 02:49:50;;;;;;;1.80;1.70;;;;;;;20.07;50.42;96834.22;4984566;28;20321;-81
2021/12/03 02:52:16;;;;;;;1.70;1.60;;;;;;;19.35;50.21;96712.59;4968147;28;20740;-81
2021/12/03 02:54:43;;;;;;;1.80;1.70;;;;;;;20.08;50.43;96846.16;4980923;28;20269;-80
2021/12/03 02:57:10;;;;;;;1.97;1.80;;;;;;;18.73;50.44;96626.09;4980356;28;20664;-81
2021/12/03 02:59:36;;;;;;;1.93;1.83;;;;;;;19.90;50.72;96815.13;4982448;28;20233;-80
2021/12/03 03:02:03;;;;;;;2.00;1.90;;;;;;;19.56;50.53;96756.47;4984914;28;20200;-81
2021/12/03 03:04:49;;;;;;;1.70;1.60;;;;;;;19.25;50.37;96703.00;4997803;28;20271;-81
2021/12/03 03:07:16;;;;;;;1.60;1.50;;;;;;;20.10;50.62;96838.53;4974107;28;20203;-80
2021/12/03 03:09:44;;;;;;;1.93;1.83;;;;;;;19.22;50.40;96695.28;4972763;28;20227;-81
2021/12/03 03:12:12;;;;;;;1.80;1.70;;;;;;;18.52;50.45;96579.72;4988298;28;20833;-81
2021/12/03 03:14:45;;;;;;;1.80;1.70;;;;;;;19.67;50.53;96788.19;4955887;28;20258;-80
2021/12/03 03:17:13;;;;;;;1.83;1.73;;;;;;;20.04;50.45;96853.69;4972336;28;20290;-80
2021/12/03 03:19:39;;;;;;;1.67;1.57;;;;;;;19.60;50.28;96787.16;4972278;28;20703;-81
2021/12/03 03:22:06;;;;;;;1.73;1.63;;;;;;;19.76;49.92;96821.56;4972030;28;20210;-81
2021/12/03 03:24:32;;;;;;;2.00;1.90;;;;;;;20.04;50.45;96874.94;4973061;28;20251;-81
2021/12/03 03:26:59;;;;;;;1.90;1.80;;;;;;;19.21;50.40;96722.41;4972012;28;20231;-81
2021/12/03 03:29:26;;;;;;;1.97;1.80;;;;;;;19.77;50.53;96823.25;4972029;28;20713;-81
2021/12/03 03:31:52;;;;;;;1.87;1.77;;;;;;;19.75;50.21;96823.22;4972181;28;20294;-80
2021/12/03 03:34:19;;;;;;;1.70;1.60;;;;;;;20.05;50.37;96880.91;4987929;28;20200;-80
2021/12/03 03:36:45;;;;;;;1.80;1.70;;;;;;;19.30;50.44;96742.22;4971827;28;20297;-81
2021/12/03 03:39:13;;;;;;;2.10;2.00;;;;;;;20.07;50.43;96869.06;4987450;28;20721;-81
2021/12/03 03:41:39;;;;;;;1.80;1.70;;;;;;;19.81;50.42;96831.03;4971697;28;20639;-80
2021/12/03 03:44:06;;;;;;;1.97;1.87;;;;;;;19.81;50.33;96838.69;4971564;28;20227;-80
2021/12/03 03:46:33;;;;;;;1.77;1.67;;;;;;;19.27;50.36;96742.16;4971779;28;20619;-81
2021/12/03 03:49:00;;;;;;;1.87;1.77;;;;;;;20.06;50.44;96880.97;4971668;28;20264;-81
2021/12/03 03:51:26;;;;;;;1.93;1.83;;;;;;;19.62;50.52;96810.13;4973235;28;20684;-81
2021/12/03 03:53:53;;;;;;;1.77;1.63;;;;;;;19.21;50.01;96734.28;4971209;28;20231;-81
2021/12/03 03:56:19;;;;;;;2.07;1.90;;;;;;;18.33;50.32;96583.47;4987736;28;20317;-81
2021/12/03 03:58:46;;;;;;;2.07;1.90;;;;;;;19.16;50.29;96720.59;4971318;28;20258;-81
2021/12/03 04:01:13;;;;;;;1.70;1.60;;;;;;;19.30;50.43;96760.91;4977770;28;20234;-81
2021/12/03 04:03:41;;;;;;;2.00;1.90;;;;;;;20.08;50.49;96897.19;4981409;28;20723;-81
2021/12/03 04:06:08;;;;;;;1.90;1.80;;;;;;;20.07;50.49;96897.13;4986814;28;20647;-81
2021/12/03 04:08:34;;;;;;;1.90;1.80;;;;;;;18.79;50.52;96680.56;4991552;28;20257;-81
2021/12/03 04:11:02;;;;;;;1.63;1.53;;;;;;;20.04;50.14;96895.34;4990960;28;20210;-81
2021/12/03 04:13:29;;;;;;;1.80;1.70;;;;;;;19.69;50.51;96840.06;4989282;28;20238;-81
2021/12/03 04:15:56;;;;;;;1.53;1.43;;;;;;;19.52;50.54;96816.69;4974667;28;20239;-81
2021/12/03 04:18:22;;;;;;;1.80;1.70;;;;;;;18.88;50.36;96710.47;4990301;28;20238;-80
2021/12/03 04:20:50;;;;;;;1.80;1.70;;;;;;;19.11;50.35;96751.03;5006942;28;20605;-81
2021/12/03 04:23:19;;;;;;;1.70;1.60;;;;;;;20.03;50.54;96898.75;4990525;28;20238;-79
2021/12/03 04:25:47;;;;;;;1.90;1.80;;;;;;;19.16;50.49;96756.25;4991298;28;20763;-81
2021/12/03 04:28:14;;;;;;;1.90;1.80;;;;;;;20.04;50.51;96915.75;4974612;28;20601;-81
2021/12/03 04:30:40;;;;;;;2.07;1.90;;;;;;;17.73;50.58;96521.59;4990441;28;20234;-81
2021/12/03 04:33:07;;;;;;;1.50;1.40;;;;;;;20.05;50.36;96927.72;4990215;28;20203;-81
2021/12/03 04:35:34;;;;;;;1.53;1.43;;;;;;;19.77;50.46;96879.34;4991355;28;20226;-81
2021/12/03 04:38:01;;;;;;;2.03;1.60;;;;;;;19.24;50.52;96791.28;5033985;23;20250;-83
2021/12/03 04:40:27;;;;;;;2.00;1.80;;;;;;;19.51;50.39;96842.97;4989241;28;20638;-81
2021/12/03 04:42:54;;;;;;;1.63;1.53;;;;;;;19.83;50.41;96895.69;5011839;28;20252;-81
2021/12/03 04:45:21;;;;;;;2.00;1.90;;;;;;;19.41;50.30;96827.41;4995638;28;20202;-83
2021/12/03 04:47:49;;;;;;;1.37;1.30;;;;;;;19.54;50.56;96852.41;5012191;28;20193;-82
2021/12/03 04:50:16;;;;;;;1.87;1.77;;;;;;;19.66;50.55;96878.22;4995782;28;20225;-84
2021/12/03 04:52:43;;;;;;;2.00;1.80;;;;;;;19.39;50.50;96852.00;4995650;28;20271;-83
2021/12/03 04:55:10;;;;;;;1.90;1.70;;;;;;;19.73;50.69;96898.81;4995724;28;20397;-83
2021/12/03 04:57:36;;;;;;;1.60;1.50;;;;;;;19.40;50.36;96849.50;4995777;28;20272;-83
2021/12/03 05:00:10;;;;;;;1.70;1.60;;;;;;;19.73;50.40;96913.25;4995816;28;20253;-82
2021/12/03 05:02:36;;;;;;;1.87;1.77;;;;;;;19.64;50.59;96896.03;4996055;28;20238;-82
2021/12/03 05:05:05;;;;;;;1.30;1.20;;;;;;;19.20;50.42;96827.69;4995490;28;20194;-83
2021/12/03 05:09:59;;;;;;;1.77;1.67;;;;;;;19.99;50.12;96981.94;5011549;28;20218;-82
2021/12/03 05:12:26;;;;;;;1.60;1.50;;;;;;;19.62;51.13;96912.97;4995192;28;20621;-83
2021/12/03 05:14:52;;;;;;;1.60;1.50;;;;;;;19.61;50.30;96911.25;5012018;28;20202;-82
2021/12/03 05:17:19;;;;;;;1.80;1.70;;;;;;;19.83;50.51;96956.88;4995702;28;20634;-83
2021/12/03 05:19:45;;;;;;;2.00;1.80;;;;;;;19.64;50.34;96933.41;4995876;28;20245;-84
2021/12/03 05:22:13;;;;;;;1.70;1.60;;;;;;;19.57;50.42;96922.16;4995851;28;20202;-83
2021/12/03 05:24:42;;;;;;;1.70;1.60;;;;;;;19.42;50.36;96896.25;4998765;28;20253;-83
2021/12/03 05:27:09;;;;;;;1.60;1.50;;;;;;;19.63;50.32;96936.78;4999776;28;20687;-81
2021/12/03 05:29:35;;;;;;;1.37;1.30;;;;;;;19.52;50.50;96930.50;4999578;28;20301;-83
2021/12/03 05:32:02;;;;;;;1.90;1.80;;;;;;;19.62;50.58;96946.09;4999809;28;20194;-82
2021/12/03 05:34:29;;;;;;;1.80;1.70;;;;;;;19.45;50.69;96913.34;4999093;28;20640;-81
2021/12/03 05:36:55;;;;;;;1.83;1.73;;;;;;;19.79;50.46;96978.03;4999392;28;20290;-83
2021/12/03 05:39:22;;;;;;;1.73;1.63;;;;;;;19.58;50.16;96948.50;4998774;28;20309;-83
2021/12/03 05:41:49;;;;;;;1.90;1.80;;;;;;;19.76;50.45;96983.03;4999222;28;20292;-82
2021/12/03 05:44:15;;;;;;;1.80;1.70;;;;;;;19.82;50.70;96995.09;4998669;28;20233;-82
2021/12/03 05:46:42;;;;;;;1.77;1.67;;;;;;;19.41;50.13;96934.44;4999162;28;20202;-83
2021/12/03 05:49:09;;;;;;;1.70;1.60;;;;;;;19.28;50.47;96943.44;5014903;28;20293;-82
2021/12/03 05:51:35;;;;;;;1.80;1.70;;;;;;;20.08;50.42;97045.13;4999151;28;20198;-83
2021/12/03 05:54:02;;;;;;;1.70;1.60;;;;;;;19.69;50.46;96993.88;5014763;28;20753;-83
2021/12/03 05:56:29;;;;;;;1.70;1.60;;;;;;;19.76;50.48;97012.75;4999205;28;20225;-82
2021/12/03 05:58:58;;;;;;;1.70;1.60;;;;;;;19.36;50.32;96947.03;4998256;28;20272;-83
2021/12/03 06:01:25;;;;;;;1.63;1.53;;;;;;;19.51;50.27;96978.06;4997485;28;20241;-83
2021/12/03 06:03:52;;;;;;;1.70;1.60;;;;;;;19.70;50.52;97018.56;4997566;28;20206;-83
2021/12/03 06:06:19;;;;;;;1.47;1.37;;;;;;;19.53;50.35;96996.81;4998008;28;20244;-83
2021/12/03 06:08:45;;;;;;;1.90;1.80;;;;;;;19.80;50.26;97045.16;4981432;28;20599;-82
2021/12/03 06:11:12;;;;;;;1.60;1.50;;;;;;;19.53;50.32;96995.94;4981343;28;20210;-82
2021/12/03 06:13:39;;;;;;;1.90;1.80;;;;;;;20.04;50.21;97091.75;4980740;28;20289;-83
2021/12/03 06:16:10;;;;;;;1.80;1.70;;;;;;;19.43;50.20;96983.75;4997366;28;20260;-83
2021/12/03 06:18:36;;;;;;;1.80;1.70;;;;;;;18.95;50.40;96901.63;4981225;28;20746;-83
2021/12/03 06:21:05;;;;;;;1.80;1.70;;;;;;;19.88;50.35;97061.56;4997299;28;20233;-83
2021/12/03 06:23:31;;;;;;;1.70;1.60;;;;;;;19.71;50.16;97038.13;4997431;28;20293;-83
2021/12/03 06:25:58;;;;;;;1.80;1.70;;;;;;;18.23;50.52;96790.88;4996808;28;20794;-83
2021/12/03 06:28:26;;;;;;;1.70;1.60;;;;;;;19.47;50.29;97001.72;4981065;28;20894;-82
2021/12/03 06:30:52;;;;;;;1.50;1.40;;;;;;;19.72;50.23;97046.66;4997261;28;20218;-83
2021/12/03 06:33:19;;;;;;;1.80;1.70;;;;;;;19.89;50.25;97071.78;4997317;28;20199;-82
2021/12/03 06:35:46;;;;;;;1.60;1.50;;;;;;;19.66;50.29;97039.66;5013258;28;20245;-81
2021/12/03 06:38:14;;;;;;;1.70;1.60;;;;;;;19.65;50.61;97037.94;4996780;28;20280;-83
2021/12/03 06:40:40;;;;;;;1.87;1.77;;;;;;;19.45;50.26;96998.25;4997300;28;20668;-83
2021/12/03 06:43:07;;;;;;;1.80;1.70;;;;;;;20.11;49.92;97116.63;5013133;28;20677;-83
2021/12/03 06:45:33;;;;;;;1.87;1.77;;;;;;;20.11;50.33;97118.31;5014217;28;20248;-83
2021/12/03 06:48:00;;;;;;;1.73;1.63;;;;;;;19.42;50.34;97007.53;5012469;28;20257;-83
2021/12/03 06:50:28;;;;;;;1.80;1.70;;;;;;;19.05;50.30;96943.53;4996611;28;20304;-83
2021/12/03 06:53:17;;;;;;;1.60;1.50;;;;;;;19.54;50.35;97033.38;4996194;28;20210;-80
2021/12/03 06:58:12;;;;;;;1.60;1.50;;;;;;;19.72;50.20;97090.81;4997212;28;20253;-83
2021/12/03 07:00:39;;;;;;;1.70;1.60;;;;;;;19.55;50.36;97050.38;4980774;28;20234;-83
2021/12/03 07:03:05;;;;;;;1.77;1.67;;;;;;;19.53;50.21;97057.09;4996390;28;20206;-83
2021/12/03 07:05:32;;;;;;;1.63;1.53;;;;;;;19.58;50.36;97069.19;4996883;28;20710;-83
2021/12/03 07:07:59;;;;;;;1.67;1.57;;;;;;;19.69;50.11;97093.28;5012605;28;20265;-83
2021/12/03 07:10:26;;;;;;;1.63;1.53;;;;;;;20.08;50.25;97151.38;5012860;28;20272;-84
2021/12/03 07:12:52;;;;;;;1.70;1.60;;;;;;;19.45;50.10;97050.94;5012068;28;20635;-81
2021/12/03 07:15:19;;;;;;;1.60;1.50;;;;;;;19.93;50.45;97142.44;4980642;28;20261;-83
2021/12/03 07:17:49;;;;;;;1.50;1.40;;;;;;;19.72;50.23;97106.13;4980082;28;20626;-83
2021/12/03 07:20:16;;;;;;;1.80;1.70;;;;;;;19.57;50.27;97085.28;4997213;28;20285;-83
2021/12/03 07:22:43;;;;;;;1.97;1.73;;;;;;;19.62;50.15;97088.84;4980548;28;20633;-83
2021/12/03 07:25:09;;;;;;;1.80;1.70;;;;;;;19.73;50.29;97112.09;4996019;28;20676;-83
2021/12/03 07:27:36;;;;;;;1.50;1.40;;;;;;;19.73;50.18;97112.09;4996410;28;20205;-83
2021/12/03 07:30:03;;;;;;;1.70;1.60;;;;;;;19.57;50.22;97115.03;4996268;28;20222;-83
2021/12/03 07:32:30;;;;;;;1.37;1.30;;;;;;;19.65;50.30;97106.78;4996653;28;20233;-82
2021/12/03 07:34:57;;;;;;;1.60;1.50;;;;;;;19.90;50.28;97147.47;5012387;28;20234;-83
2021/12/03 07:37:24;;;;;;;1.90;1.70;;;;;;;19.93;50.23;97151.81;5011978;28;20293;-82
2021/12/03 07:39:50;;;;;;;1.70;1.60;;;;;;;20.12;50.39;97194.88;4979799;28;20276;-83
2021/12/03 07:42:17;;;;;;;2.03;1.73;;;;;;;19.64;50.33;97111.81;4996251;28;20618;-83
2021/12/03 07:44:44;;;;;;;1.60;1.50;;;;;;;19.80;50.25;97136.94;4995711;28;20198;-83
2021/12/03 07:47:10;;;;;;;1.50;1.40;;;;;;;19.65;50.07;97128.84;4979605;28;20198;-83
2021/12/03 07:49:39;;;;;;;1.90;1.80;;;;;;;19.77;50.21;97150.47;5011912;28;20352;-81
2021/12/03 07:52:06;;;;;;;1.60;1.50;;;;;;;19.39;50.38;97100.00;4980113;28;20309;-83
2021/12/03 07:54:33;;;;;;;1.80;1.70;;;;;;;19.58;50.11;97130.34;4979620;28;20233;-86
2021/12/03 07:56:59;;;;;;;1.80;1.70;;;;;;;20.06;50.08;97209.13;4979954;28;20270;-82
2021/12/03 07:59:26;;;;;;;1.90;1.80;;;;;;;19.44;50.05;97105.25;4995845;28;20257;-83
2021/12/03 08:01:52;;;;;;;1.53;1.43;;;;;;;18.87;50.11;97011.72;4995147;28;20229;-83
2021/12/03 08:04:19;;;;;;;1.60;1.50;;;;;;;19.95;50.27;97196.94;4995283;28;20281;-83
2021/12/03 08:06:54;;;;;;;2.00;1.80;;;;;;;19.72;50.20;97154.56;5011558;28;20205;-81
2021/12/03 08:09:22;;;;;;;1.77;1.67;;;;;;;19.70;50.16;97157.91;5011534;28;20309;-83
2021/12/03 08:11:48;;;;;;;1.70;1.60;;;;;;;19.37;50.25;97101.66;5011953;28;20282;-83
2021/12/03 08:14:15;;;;;;;1.70;1.60;;;;;;;19.54;50.34;97137.88;5011065;28;20288;-84
2021/12/03 08:16:43;;;;;;;1.70;1.60;;;;;;;19.57;50.34;97143.91;4994976;28;20237;-83
2021/12/03 08:19:09;;;;;;;1.60;1.50;;;;;;;19.37;50.10;97109.31;5011730;28;20233;-83
2021/12/03 08:21:36;;;;;;;1.60;1.50;;;;;;;20.11;50.23;97243.31;5011524;28;20205;-84
2021/12/03 08:24:04;;;;;;;1.63;1.53;;;;;;;19.70;50.25;97170.66;4995206;28;20620;-85
2021/12/03 08:26:32;;;;;;;1.87;1.70;;;;;;;19.77;50.17;97187.84;5011347;28;20292;-83
2021/12/03 08:28:59;;;;;;;1.77;1.60;;;;;;;19.48;50.27;97138.53;5011152;28;20605;-83
2021/12/03 08:31:25;;;;;;;1.70;1.60;;;;;;;19.82;50.05;97199.06;4995354;28;20214;-83
2021/12/03 08:33:52;;;;;;;1.70;1.60;;;;;;;19.36;50.54;97130.50;5010820;28;20487;-83
2021/12/03 08:36:19;;;;;;;1.60;1.50;;;;;;;19.61;50.15;97165.25;4995177;28;20230;-84
2021/12/03 08:38:46;;;;;;;2.17;1.57;;;;;;;19.49;50.25;97144.50;4994360;28;20719;-83
2021/12/03 08:41:17;;;;;;;1.70;1.53;;;;;;;19.51;50.23;97146.25;5010763;28;20205;-83
2021/12/03 08:43:47;;;;;;;1.73;1.63;;;;;;;19.37;50.14;97124.59;5010641;28;20648;-83
2021/12/03 08:46:17;;;;;;;1.80;1.70;;;;;;;19.47;50.03;97152.09;5011375;28;20190;-83
2021/12/03 08:48:47;;;;;;;1.93;1.63;;;;;;;20.07;49.99;97249.16;4994859;28;20249;-84
2021/12/03 08:56:28;;;;;;;1.70;1.60;;;;;;;19.31;49.93;97137.16;5011216;28;20237;-83
2021/12/03 08:58:55;;;;;;;1.60;1.50;;;;;;;19.83;50.08;97218.63;4994284;28;20260;-82
2021/12/03 09:01:22;;;;;;;1.60;1.50;;;;;;;20.07;50.10;97265.31;4978616;28;20245;-84
2021/12/03 09:03:49;;;;;;;2.07;1.83;;;;;;;19.95;50.12;97241.97;5011745;28;20663;-85
2021/12/03 09:06:15;;;;;;;1.57;1.47;;;;;;;19.44;50.26;97161.31;4994960;28;20202;-83
2021/12/03 09:08:42;;;;;;;1.80;1.70;;;;;;;19.91;50.50;97240.16;5010321;28;20225;-83
2021/12/03 09:11:09;;;;;;;1.27;1.23;;;;;;;19.69;50.29;97227.56;5010429;28;20272;-83
2021/12/03 09:13:36;;;;;;;1.50;1.40;;;;;;;19.71;50.09;97208.06;5009967;28;20206;-83
2021/12/03 09:16:06;;;;;;;1.83;1.73;;;;;;;19.60;49.99;97187.31;4994505;28;20198;-83
2021/12/03 09:18:39;;;;;;;1.70;1.60;;;;;;;19.71;50.13;97211.47;5010399;28;20249;-83
2021/12/03 09:21:33;;;;;;;1.53;1.43;;;;;;;19.76;50.21;97219.28;5011127;28;20251;-82
2021/12/03 09:26:29;;;;;;;1.60;1.50;;;;;;;19.71;50.14;97210.59;5010936;28;20268;-83
2021/12/03 09:29:06;;;;;;;1.73;1.40;;;;;;;19.62;49.97;97193.34;5010347;28;20288;-80
2021/12/03 09:31:36;;;;;;;1.80;1.70;;;;;;;19.51;49.97;97170.91;5010393;28;20225;-80
2021/12/03 09:34:17;;;;;;;1.60;1.50;;;;;;;19.63;50.15;97196.78;5010778;28;20237;-84
2021/12/03 09:36:44;;;;;;;1.60;1.50;;;;;;;19.46;50.03;97160.56;5011045;28;20190;-82
2021/12/03 09:39:23;;;;;;;1.60;1.50;;;;;;;19.99;49.71;97270.16;5010479;28;20258;-83
2021/12/03 09:41:54;;;;;;;1.63;1.53;;;;;;;19.50;49.89;97177.66;4996220;28;20233;-83
2021/12/03 09:44:21;;;;;;;1.43;1.33;;;;;;;19.55;50.01;97186.34;4994764;28;20664;-83
2021/12/03 09:46:48;;;;;;;1.60;1.50;;;;;;;19.66;49.97;97195.16;5010629;28;20234;-84
2021/12/03 09:56:57;;;;;;;1.60;1.50;;;;;;;19.69;49.91;97197.81;5010746;28;20675;-83
2021/12/03 10:05:31;;;;;;;1.60;1.50;;;;;;;19.76;49.89;97201.44;4964528;28;20274;-84
2021/12/03 10:18:42;;;;;;;1.77;1.67;;;;;;;19.74;50.03;97191.19;5018624;28;20231;-83
2021/12/03 10:29:07;;;;;;;1.70;1.60;;;;;;;19.54;49.97;97156.56;5017122;28;20275;-84
2021/12/03 10:37:36;;;;;;;1.90;1.70;;;;;;;19.69;50.09;97174.03;5017815;28;20217;-82
2021/12/03 10:40:29;;;;;;;1.57;1.47;;;;;;;20.06;50.02;97220.22;5008580;23;20227;-79
2021/12/03 10:43:12;;;;;;;1.50;1.40;;;;;;;19.26;49.80;97081.72;5005166;28;20226;-79
2021/12/03 10:46:29;;;;;;;1.50;1.40;;;;;;;19.77;49.68;97175.97;5011745;28;20743;-79
2021/12/03 10:48:37;;;;;;;1.70;1.60;;;;;;;20.07;49.91;97211.72;5004781;28;20225;-79
2021/12/03 10:54:10;;;;;;;2.37;1.50;;;;;;;18.80;50.27;96984.34;4996146;28;20230;-79
2021/12/03 10:56:58;;;;;;;1.60;1.50;;;;;;;19.62;49.96;97131.28;4997747;28;20749;-79
2021/12/03 11:05:27;;;;;;;1.70;1.60;;;;;;;18.98;50.03;97015.47;4995095;28;20535;-79
2021/12/03 11:25:25;;;;;;;1.43;1.33;;;;;;;20.12;49.90;97214.41;4990816;28;20199;-79
2021/12/03 11:30:07;;;;;;;1.50;1.40;;;;;;;19.91;49.99;97184.03;4991507;28;20651;-80
2021/12/03 13:37:43;;;;;;;1.40;1.30;;;;;;;18.33;49.79;96864.91;4990751;28;20207;-80
2021/12/03 14:49:42;;;;;;;1.70;1.40;;;;;;;19.40;50.18;97021.91;5011624;28;20314;-79
2021/12/03 14:52:20;;;;;;;1.33;1.27;;;;;;;19.31;50.06;97001.25;4997653;28;20225;-80
2021/12/03 14:54:52;;;;;;;1.60;1.50;;;;;;;20.13;49.98;97150.72;4996961;28;20645;-79
2021/12/03 15:00:29;;;;;;;1.50;1.40;;;;;;;20.13;50.06;97145.63;5011449;28;20711;-80
2021/12/03 15:08:46;;;;;;;1.60;1.50;;;;;;;19.26;49.95;96995.09;4993008;28;20255;-79
2021/12/03 15:22:06;;;;;;;1.60;1.50;;;;;;;18.68;49.68;96893.19;4991543;28;20203;-80
2021/12/03 15:27:33;;;;;;;1.50;1.40;;;;;;;18.17;50.33;96807.59;4991275;28;20740;-80
2021/12/03 15:32:57;;;;;;;1.70;1.60;;;;;;;19.30;49.82;96996.97;4991114;28;20302;-79
2021/12/03 16:08:26;;;;;;;1.70;1.60;;;;;;;19.75;49.69;97067.97;4986379;28;20202;-80
2021/12/03 16:19:22;;;;;;;2.13;1.93;;;;;;;20.07;49.87;97125.00;5010273;28;20249;-80
2021/12/03 16:44:09;;;;;;;2.73;1.50;;;;;;;19.71;49.79;97058.50;5011217;28;20218;-83
2021/12/03 16:51:55;;;;;;;1.83;1.73;;;;;;;19.59;49.87;97030.13;5001262;28;20325;-83
2021/12/03 16:54:44;;;;;;;1.80;1.70;;;;;;;20.08;49.88;97131.84;4999457;28;20198;-83
2021/12/03 16:57:13;;;;;;;1.93;1.73;;;;;;;19.63;50.02;97048.94;5011873;28;20209;-82
2021/12/03 16:59:43;;;;;;;1.90;1.80;;;;;;;19.19;50.08;96976.22;4980406;28;20316;-81
2021/12/03 17:02:15;;;;;;;1.90;1.80;;;;;;;19.29;49.84;96985.03;4996285;28;20186;-81
2021/12/03 17:12:56;;;;;;;1.83;1.73;;;;;;;19.53;49.94;97014.66;4997103;28;20230;-82
2021/12/03 17:24:04;;;;;;;1.97;1.60;;;;;;;18.96;49.91;96905.94;5016194;28;20387;-81
2021/12/03 17:47:52;;;;;;;2.03;1.93;;;;;;;19.66;49.69;97024.38;5016137;28;20186;-83
2021/12/03 17:58:22;;;;;;;2.60;2.40;;;;;;;19.83;49.58;97041.03;5001911;28;20190;-82
2021/12/03 18:01:08;;;;;;;2.23;2.03;;;;;;;19.83;49.64;97045.25;4999671;28;20308;-83
2021/12/03 18:14:48;;;;;;;2.10;2.00;;;;;;;19.80;49.39;97033.28;4999461;28;20212;-81
2021/12/03 18:50:01;;;;;;;2.40;2.20;;;;;;;19.72;49.38;96976.09;5000983;28;20221;-83
2021/12/03 18:55:15;;;;;;;2.63;2.43;;;;;;;19.83;49.34;96984.03;4997504;28;20209;-82
2021/12/03 18:57:45;;;;;;;2.30;2.20;;;;;;;19.58;49.29;96929.00;4983915;28;20179;-83
2021/12/03 19:00:15;;;;;;;2.70;2.50;;;;;;;19.34;49.34;96886.69;4983201;28;20317;-83
2021/12/03 19:02:45;;;;;;;2.53;2.33;;;;;;;19.60;49.33;96931.59;5014339;28;20214;-82
2021/12/03 19:05:31;;;;;;;2.37;2.17;;;;;;;19.26;49.33;96862.63;4982469;28;20202;-83
2021/12/03 19:08:11;;;;;;;2.33;2.13;;;;;;;18.90;49.30;96826.84;4986704;28;20218;-82
2021/12/03 19:10:44;;;;;;;2.50;2.30;;;;;;;19.65;49.31;96938.53;4985478;28;20637;-83
2021/12/03 19:13:16;;;;;;;2.50;2.30;;;;;;;19.45;49.16;96903.13;4982636;28;20272;-83
2021/12/03 19:15:43;;;;;;;2.50;2.30;;;;;;;19.78;49.43;96952.50;4998343;28;20218;-83
2021/12/03 19:18:10;;;;;;;2.73;2.53;;;;;;;19.61;49.16;96920.56;5014040;28;20234;-82
2021/12/03 19:20:52;;;;;;;2.70;2.50;;;;;;;19.69;49.28;96929.28;4985126;28;20230;-82